X  Schlie├čen METAR Luftfahrt Wetterdaten        LDPL Pula
Temperatur
14°C Temperatur
11°C Taupunkt
82% Feuchtigkeit



Wind
4 KM/S
2 MPS
1 M/S
2 KTS



-1°
VRB
Aktuelle Wetterlage

Mostly Sunny Meist sonnig
Luftdruck 1021 (hPa) - 30.15 (inHg)
Sichtweite 6 (Meile) - 10 (Km)
Flughafen
Flughafen Code LDPL

Position : Pula
Entfernung: 39 (Km)

Metar:
METAR LDPL 300600Z VRB02KT CAVOK 14/11 Q1021 NOSIG

Zeit: 30-09-2023 08:00 CEST